createdAt,value
2019-05-02T00:00:19.584Z,1002.81
2019-05-02T00:01:19.581Z,1002.80
2019-05-02T00:02:23.875Z,1002.80
2019-05-02T00:03:19.569Z,1002.78
2019-05-02T00:04:21.010Z,1002.72
2019-05-02T00:05:19.558Z,1002.74
2019-05-02T00:06:19.556Z,1002.73
2019-05-02T00:07:20.207Z,1002.71
2019-05-02T00:08:19.561Z,1002.68
2019-05-02T00:09:19.539Z,1002.65
2019-05-02T00:10:19.971Z,1002.63
2019-05-02T00:11:19.530Z,1002.64
2019-05-02T00:12:19.522Z,1002.67
2019-05-02T00:13:19.514Z,1002.59
2019-05-02T00:14:19.510Z,1002.61
2019-05-02T00:15:19.507Z,1002.62
2019-05-02T00:16:19.499Z,1002.64
2019-05-02T00:17:20.468Z,1002.64
2019-05-02T00:18:19.488Z,1002.68
2019-05-02T00:19:19.485Z,1002.64
2019-05-02T00:20:21.200Z,1002.66
2019-05-02T00:21:19.472Z,1002.64
2019-05-02T00:22:19.467Z,1002.61
2019-05-02T00:23:22.989Z,1002.60
2019-05-02T00:24:19.455Z,1002.58
2019-05-02T00:25:19.452Z,1002.58
2019-05-02T00:26:19.444Z,1002.58
2019-05-02T00:27:19.440Z,1002.63
2019-05-02T00:28:19.433Z,1002.57
2019-05-02T00:29:23.747Z,1002.56
2019-05-02T00:30:19.424Z,1002.56
2019-05-02T00:31:19.417Z,1002.57
2019-05-02T00:32:22.306Z,1002.58
2019-05-02T00:33:19.405Z,1002.54
2019-05-02T00:34:19.401Z,1002.58
2019-05-02T00:35:19.398Z,1002.57
2019-05-02T00:36:19.389Z,1002.52
2019-05-02T00:37:24.641Z,1002.56
2019-05-02T00:38:19.378Z,1002.52
2019-05-02T00:39:19.374Z,1002.54
2019-05-02T00:40:20.187Z,1002.53
2019-05-02T00:41:19.365Z,1002.53
2019-05-02T00:42:22.521Z,1002.54
2019-05-02T00:43:19.350Z,1002.57
2019-05-02T00:44:19.350Z,1002.51
2019-05-02T00:45:23.961Z,1002.54
2019-05-02T00:46:19.334Z,1002.50
2019-05-02T00:47:19.331Z,1002.55
2019-05-02T00:48:22.745Z,1002.50
2019-05-02T00:49:19.317Z,1002.53
2019-05-02T00:50:19.312Z,1002.52
2019-05-02T00:51:22.031Z,1002.49
2019-05-02T00:52:19.301Z,1002.43
2019-05-02T00:53:19.295Z,1002.45
2019-05-02T00:54:23.797Z,1002.45
2019-05-02T00:55:19.285Z,1002.41
2019-05-02T00:56:19.279Z,1002.41
2019-05-02T00:57:19.900Z,1002.43
2019-05-02T00:58:19.276Z,1002.40
2019-05-02T00:59:19.262Z,1002.39
2019-05-02T01:00:19.897Z,1002.39
2019-05-02T01:01:19.252Z,1002.37
2019-05-02T01:02:19.246Z,1002.39
2019-05-02T01:03:19.241Z,1002.35
2019-05-02T01:04:23.242Z,1002.33
2019-05-02T01:05:19.232Z,1002.36
2019-05-02T01:06:19.224Z,1002.32
2019-05-02T01:07:20.465Z,1002.34
2019-05-02T01:08:19.214Z,1002.32
2019-05-02T01:09:19.207Z,1002.31
2019-05-02T01:10:21.182Z,1002.28
2019-05-02T01:11:19.199Z,1002.33
2019-05-02T01:12:26.284Z,1002.31
2019-05-02T01:13:19.327Z,1002.34
2019-05-02T01:14:19.182Z,1002.27
2019-05-02T01:15:19.177Z,1002.33
2019-05-02T01:16:20.261Z,1002.32
2019-05-02T01:17:19.167Z,1002.34
2019-05-02T01:18:19.161Z,1002.29
2019-05-02T01:19:19.158Z,1002.31
2019-05-02T01:20:22.149Z,1002.25
2019-05-02T01:21:19.144Z,1002.29
2019-05-02T01:22:19.143Z,1002.31
2019-05-02T01:23:23.091Z,1002.29
2019-05-02T01:24:19.129Z,1002.29
2019-05-02T01:25:19.125Z,1002.27
2019-05-02T01:26:19.119Z,1002.24
2019-05-02T01:27:19.122Z,1002.25
2019-05-02T01:28:19.109Z,1002.27
2019-05-02T01:29:19.103Z,1002.29
2019-05-02T01:30:19.096Z,1002.27
2019-05-02T01:31:20.309Z,1002.29
2019-05-02T01:32:19.085Z,1002.30
2019-05-02T01:33:19.080Z,1002.26
2019-05-02T01:34:19.375Z,1002.27
2019-05-02T01:35:19.071Z,1002.32
2019-05-02T01:36:19.064Z,1002.28
2019-05-02T01:37:20.992Z,1002.20
2019-05-02T01:38:19.054Z,1002.23
2019-05-02T01:39:19.049Z,1002.25
2019-05-02T01:40:19.072Z,1002.16
2019-05-02T01:41:19.037Z,1002.20
2019-05-02T01:42:19.054Z,1002.14
2019-05-02T01:43:19.818Z,1002.15
2019-05-02T01:44:19.021Z,1002.17
2019-05-02T01:45:19.017Z,1002.17
2019-05-02T01:46:22.227Z,1002.13
2019-05-02T01:47:19.006Z,1002.14
2019-05-02T01:48:19.000Z,1002.13
2019-05-02T01:49:21.826Z,1002.10
2019-05-02T01:50:18.989Z,1002.12
2019-05-02T01:51:18.984Z,1002.12
2019-05-02T01:52:19.081Z,1002.09
2019-05-02T01:53:18.972Z,1002.12
2019-05-02T01:54:18.968Z,1002.08
2019-05-02T01:55:21.261Z,1002.08
2019-05-02T01:56:18.957Z,1002.09
2019-05-02T01:57:18.956Z,1002.07
2019-05-02T01:58:20.841Z,1002.08
2019-05-02T01:59:18.940Z,1002.05
2019-05-02T02:00:18.937Z,1002.07
2019-05-02T02:01:21.561Z,1002.03
2019-05-02T02:02:18.926Z,1002.08
2019-05-02T02:03:18.945Z,1002.06
2019-05-02T02:04:21.015Z,1002.06
2019-05-02T02:05:18.907Z,1002.05
2019-05-02T02:06:18.904Z,1002.04
2019-05-02T02:07:20.062Z,1002.07
2019-05-02T02:08:18.891Z,1002.02
2019-05-02T02:09:18.885Z,1001.99
2019-05-02T02:10:19.752Z,1001.98
2019-05-02T02:11:18.877Z,1001.97
2019-05-02T02:12:18.873Z,1002.01
2019-05-02T02:13:18.863Z,1001.96
2019-05-02T02:14:19.015Z,1001.97
2019-05-02T02:15:18.855Z,1001.93
2019-05-02T02:16:18.848Z,1001.90
2019-05-02T02:17:18.843Z,1001.94
2019-05-02T02:18:22.345Z,1001.89
2019-05-02T02:19:18.833Z,1001.90
2019-05-02T02:20:18.828Z,1001.88
2019-05-02T02:21:20.019Z,1001.90
2019-05-02T02:22:18.817Z,1001.88
2019-05-02T02:23:18.812Z,1001.90
2019-05-02T02:24:21.072Z,1001.86
2019-05-02T02:25:18.802Z,1001.89
2019-05-02T02:26:18.796Z,1001.92
2019-05-02T02:27:19.909Z,1001.90
2019-05-02T02:28:18.783Z,1001.93
2019-05-02T02:29:18.780Z,1001.92
2019-05-02T02:30:24.502Z,1001.90
2019-05-02T02:31:18.770Z,1001.91
2019-05-02T02:32:20.299Z,1001.89
2019-05-02T02:33:18.758Z,1001.91
2019-05-02T02:34:21.333Z,1001.90
2019-05-02T02:35:18.750Z,1001.90
2019-05-02T02:36:29.893Z,1001.89
2019-05-02T02:37:18.739Z,1001.88
2019-05-02T02:38:18.731Z,1001.88
2019-05-02T02:39:18.727Z,1001.86
2019-05-02T02:40:18.729Z,1001.87
2019-05-02T02:41:18.716Z,1001.86
2019-05-02T02:42:24.755Z,1001.84
2019-05-02T02:43:33.322Z,1001.85
2019-05-02T02:44:18.701Z,1001.85
2019-05-02T02:45:20.287Z,1001.84
2019-05-02T02:46:18.691Z,1001.82
2019-05-02T02:47:20.780Z,1001.81
2019-05-02T02:48:18.681Z,1001.86
2019-05-02T02:49:21.453Z,1001.89
2019-05-02T02:50:18.672Z,1001.83
2019-05-02T02:51:23.869Z,1001.87
2019-05-02T02:52:18.659Z,1001.80
2019-05-02T02:53:24.245Z,1001.84
2019-05-02T02:54:18.648Z,1001.80
2019-05-02T02:55:22.103Z,1001.82
2019-05-02T02:56:18.642Z,1001.82
2019-05-02T02:57:26.631Z,1001.76
2019-05-02T02:58:18.638Z,1001.75
2019-05-02T02:59:26.106Z,1001.74
2019-05-02T03:00:18.616Z,1001.71
2019-05-02T03:01:27.260Z,1001.72
2019-05-02T03:02:18.607Z,1001.71
2019-05-02T03:03:20.793Z,1001.71
2019-05-02T03:04:18.595Z,1001.72
2019-05-02T03:05:25.401Z,1001.73
2019-05-02T03:06:18.585Z,1001.79
2019-05-02T03:07:25.608Z,1001.76
2019-05-02T03:08:18.574Z,1001.73
2019-05-02T03:09:20.525Z,1001.76
2019-05-02T03:10:18.564Z,1001.79
2019-05-02T03:11:23.441Z,1001.78
2019-05-02T03:12:18.554Z,1001.78
2019-05-02T03:13:21.773Z,1001.73
2019-05-02T03:14:18.547Z,1001.73
2019-05-02T03:15:20.942Z,1001.77
2019-05-02T03:16:18.531Z,1001.74
2019-05-02T03:17:20.550Z,1001.74
2019-05-02T03:18:18.525Z,1001.70
2019-05-02T03:19:21.257Z,1001.69
2019-05-02T03:20:18.511Z,1001.63
2019-05-02T03:21:20.277Z,1001.62
2019-05-02T03:22:18.501Z,1001.63
2019-05-02T03:23:21.807Z,1001.61
2019-05-02T03:24:18.489Z,1001.62
2019-05-02T03:25:26.960Z,1001.53
2019-05-02T03:26:18.501Z,1001.55
2019-05-02T03:27:18.481Z,1001.52
2019-05-02T03:28:20.875Z,1001.52
2019-05-02T03:29:18.463Z,1001.51
2019-05-02T03:30:33.020Z,1001.50
2019-05-02T03:31:24.763Z,1001.52
2019-05-02T03:32:31.768Z,1001.54
2019-05-02T03:33:18.449Z,1001.51
2019-05-02T03:34:18.437Z,1001.54
2019-05-02T03:35:19.366Z,1001.56
2019-05-02T03:36:31.351Z,1001.54
2019-05-02T03:37:18.436Z,1001.57
2019-05-02T03:38:18.425Z,1001.58
2019-05-02T03:39:18.414Z,1001.59
2019-05-02T03:40:18.406Z,1001.59
2019-05-02T03:41:20.746Z,1001.59
2019-05-02T03:42:18.396Z,1001.58
2019-05-02T03:43:19.055Z,1001.60
2019-05-02T03:44:25.364Z,1001.65
2019-05-02T03:45:18.378Z,1001.55
2019-05-02T03:46:20.440Z,1001.61
2019-05-02T03:47:18.368Z,1001.62
2019-05-02T03:48:25.219Z,1001.56
2019-05-02T03:49:18.359Z,1001.60
2019-05-02T03:50:31.400Z,1001.63
2019-05-02T03:51:21.708Z,1001.63
2019-05-02T03:52:18.341Z,1001.59
2019-05-02T03:53:24.953Z,1001.57
2019-05-02T03:54:20.155Z,1001.57
2019-05-02T03:55:24.031Z,1001.59
2019-05-02T03:56:18.328Z,1001.56
2019-05-02T03:57:18.316Z,1001.51
2019-05-02T03:58:18.313Z,1001.53
2019-05-02T03:59:18.314Z,1001.56
2019-05-02T04:00:21.280Z,1001.60
2019-05-02T04:01:18.297Z,1001.55
2019-05-02T04:02:20.536Z,1001.59
2019-05-02T04:03:18.286Z,1001.55
2019-05-02T04:04:20.496Z,1001.52
2019-05-02T04:05:18.278Z,1001.54
2019-05-02T04:06:21.094Z,1001.53
2019-05-02T04:07:18.264Z,1001.54
2019-05-02T04:08:20.916Z,1001.50
2019-05-02T04:09:18.255Z,1001.52
2019-05-02T04:10:20.210Z,1001.50
2019-05-02T04:11:18.241Z,1001.54
2019-05-02T04:12:21.392Z,1001.47
2019-05-02T04:13:18.233Z,1001.45
2019-05-02T04:14:36.597Z,1001.45
2019-05-02T04:15:18.230Z,1001.48
2019-05-02T04:16:18.218Z,1001.42
2019-05-02T04:17:18.211Z,1001.42
2019-05-02T04:18:18.206Z,1001.44
2019-05-02T04:19:18.200Z,1001.44
2019-05-02T04:20:18.200Z,1001.42
2019-05-02T04:21:24.195Z,1001.44
2019-05-02T04:22:18.185Z,1001.41
2019-05-02T04:23:21.293Z,1001.44
2019-05-02T04:24:18.178Z,1001.43
2019-05-02T04:25:18.169Z,1001.44
2019-05-02T04:26:18.188Z,1001.41
2019-05-02T04:27:18.160Z,1001.38
2019-05-02T04:28:18.154Z,1001.40
2019-05-02T04:29:18.148Z,1001.36
2019-05-02T04:30:18.146Z,1001.43
2019-05-02T04:31:18.140Z,1001.44
2019-05-02T04:32:18.132Z,1001.42
2019-05-02T04:33:18.129Z,1001.44
2019-05-02T04:34:18.209Z,1001.43
2019-05-02T04:35:18.120Z,1001.49
2019-05-02T04:36:18.196Z,1001.46
2019-05-02T04:37:18.106Z,1001.41
2019-05-02T04:38:21.281Z,1001.45
2019-05-02T04:39:21.179Z,1001.43
2019-05-02T04:40:18.364Z,1001.45
2019-05-02T04:41:28.274Z,1001.39
2019-05-02T04:42:22.105Z,1001.39
2019-05-02T04:43:18.381Z,1001.37
2019-05-02T04:44:18.909Z,1001.39
2019-05-02T04:45:28.464Z,1001.36
2019-05-02T04:46:25.541Z,1001.35
2019-05-02T04:47:21.947Z,1001.35
2019-05-02T04:48:18.512Z,1001.35
2019-05-02T04:49:22.169Z,1001.36
2019-05-02T04:50:24.609Z,1001.39
2019-05-02T04:51:20.381Z,1001.41
2019-05-02T04:52:21.159Z,1001.39
2019-05-02T04:53:18.942Z,1001.38
2019-05-02T04:54:25.654Z,1001.41
2019-05-02T04:55:26.014Z,1001.41
2019-05-02T04:56:18.574Z,1001.37
2019-05-02T04:57:18.671Z,1001.40
2019-05-02T04:58:27.387Z,1001.38
2019-05-02T04:59:22.566Z,1001.38
2019-05-02T05:00:18.483Z,1001.39
2019-05-02T05:01:17.984Z,1001.32
2019-05-02T05:02:21.287Z,1001.33
2019-05-02T05:03:21.013Z,1001.31
2019-05-02T05:04:18.051Z,1001.28
2019-05-02T05:05:25.858Z,1001.30
2019-05-02T05:06:18.827Z,1001.27
2019-05-02T05:07:17.954Z,1001.23
2019-05-02T05:08:26.339Z,1001.26
2019-05-02T05:09:18.070Z,1001.26
2019-05-02T05:10:18.564Z,1001.25
2019-05-02T05:11:20.730Z,1001.29
2019-05-02T05:12:19.467Z,1001.25
2019-05-02T05:13:22.815Z,1001.25
2019-05-02T05:14:18.090Z,1001.26
2019-05-02T05:15:33.815Z,1001.31
2019-05-02T05:16:18.671Z,1001.31
2019-05-02T05:17:19.858Z,1001.27
2019-05-02T05:18:17.897Z,1001.35
2019-05-02T05:19:17.942Z,1001.35
2019-05-02T05:20:18.312Z,1001.32
2019-05-02T05:21:18.115Z,1001.32
2019-05-02T05:22:18.454Z,1001.33
2019-05-02T05:23:21.317Z,1001.35
2019-05-02T05:24:18.278Z,1001.35
2019-05-02T05:25:21.203Z,1001.32
2019-05-02T05:26:17.857Z,1001.37
2019-05-02T05:27:21.226Z,1001.33
2019-05-02T05:28:19.840Z,1001.38
2019-05-02T05:29:19.410Z,1001.37
2019-05-02T05:30:18.658Z,1001.39
2019-05-02T05:31:23.952Z,1001.44
2019-05-02T05:32:17.954Z,1001.44
2019-05-02T05:33:18.284Z,1001.40
2019-05-02T05:34:17.829Z,1001.36
2019-05-02T05:35:17.873Z,1001.39
2019-05-02T05:36:19.733Z,1001.36
2019-05-02T05:37:17.802Z,1001.34
2019-05-02T05:38:18.203Z,1001.37
2019-05-02T05:39:17.820Z,1001.35
2019-05-02T05:40:17.821Z,1001.35
2019-05-02T05:41:22.661Z,1001.37
2019-05-02T05:42:17.964Z,1001.30
2019-05-02T05:43:20.315Z,1001.33
2019-05-02T05:44:18.058Z,1001.32
2019-05-02T05:45:17.762Z,1001.30
2019-05-02T05:46:17.978Z,1001.32
2019-05-02T05:47:21.154Z,1001.31
2019-05-02T05:48:18.378Z,1001.32
2019-05-02T05:49:21.554Z,1001.31
2019-05-02T05:50:17.797Z,1001.32
2019-05-02T05:51:20.664Z,1001.31
2019-05-02T05:52:18.079Z,1001.29
2019-05-02T05:53:20.950Z,1001.32
2019-05-02T05:54:17.885Z,1001.23
2019-05-02T05:55:23.916Z,1001.27
2019-05-02T05:56:18.170Z,1001.26
2019-05-02T05:57:21.116Z,1001.26
2019-05-02T05:58:18.781Z,1001.25
2019-05-02T05:59:17.699Z,1001.19
2019-05-02T06:00:23.032Z,1001.22
2019-05-02T06:01:20.450Z,1001.21
2019-05-02T06:02:18.417Z,1001.22
2019-05-02T06:03:17.881Z,1001.25
2019-05-02T06:04:19.437Z,1001.24
2019-05-02T06:05:17.665Z,1001.23
2019-05-02T06:06:22.856Z,1001.21
2019-05-02T06:07:19.725Z,1001.22
2019-05-02T06:08:18.570Z,1001.26
2019-05-02T06:09:17.645Z,1001.23
2019-05-02T06:10:17.640Z,1001.27
2019-05-02T06:11:20.127Z,1001.27
2019-05-02T06:12:17.629Z,1001.27
2019-05-02T06:13:17.625Z,1001.28
2019-05-02T06:14:19.918Z,1001.27
2019-05-02T06:15:17.617Z,1001.30
2019-05-02T06:16:17.611Z,1001.33
2019-05-02T06:17:17.606Z,1001.29
2019-05-02T06:18:17.602Z,1001.30
2019-05-02T06:19:17.828Z,1001.28
2019-05-02T06:20:17.591Z,1001.28
2019-05-02T06:21:17.587Z,1001.24
2019-05-02T06:22:24.141Z,1001.24
2019-05-02T06:23:17.597Z,1001.22
2019-05-02T06:24:17.571Z,1001.23
2019-05-02T06:25:17.569Z,1001.25
2019-05-02T06:26:17.567Z,1001.22
2019-05-02T06:27:20.870Z,1001.25
2019-05-02T06:28:17.552Z,1001.22
2019-05-02T06:29:18.487Z,1001.14
2019-05-02T06:30:17.544Z,1001.14
2019-05-02T06:31:17.540Z,1001.11
2019-05-02T06:32:19.374Z,1001.12
2019-05-02T06:33:17.530Z,1001.18
2019-05-02T06:34:17.526Z,1001.15
2019-05-02T06:35:21.264Z,1001.19
2019-05-02T06:36:17.515Z,1001.13
2019-05-02T06:37:17.511Z,1001.14
2019-05-02T06:38:21.642Z,1001.08
2019-05-02T06:39:17.502Z,1001.05
2019-05-02T06:40:17.496Z,1001.07
2019-05-02T06:41:21.088Z,1001.10
2019-05-02T06:42:17.487Z,1001.09
2019-05-02T06:43:17.487Z,1001.09
2019-05-02T06:44:18.564Z,1001.11
2019-05-02T06:45:17.475Z,1001.05
2019-05-02T06:46:21.968Z,1001.13
2019-05-02T06:47:17.467Z,1001.11
2019-05-02T06:48:18.863Z,1001.09
2019-05-02T06:49:17.456Z,1001.12
2019-05-02T06:50:17.452Z,1001.12
2019-05-02T06:51:20.839Z,1001.08
2019-05-02T06:52:17.442Z,1001.07
2019-05-02T06:53:17.437Z,1001.00
2019-05-02T06:54:18.057Z,1001.01
2019-05-02T06:55:17.429Z,1001.04
2019-05-02T06:56:17.425Z,1001.03
2019-05-02T06:57:19.088Z,1001.04
2019-05-02T06:58:17.417Z,1001.05
2019-05-02T06:59:18.559Z,1001.02
2019-05-02T07:00:17.408Z,1001.01
2019-05-02T07:01:21.384Z,1001.05
2019-05-02T07:02:17.402Z,1001.01
2019-05-02T07:03:17.398Z,1000.98
2019-05-02T07:04:22.255Z,1000.94
2019-05-02T07:05:17.385Z,1000.96
2019-05-02T07:06:17.549Z,1000.91
2019-05-02T07:07:17.389Z,1000.92
2019-05-02T07:08:17.424Z,1000.91
2019-05-02T07:09:17.370Z,1000.93
2019-05-02T07:10:20.276Z,1000.96
2019-05-02T07:11:17.362Z,1000.92
2019-05-02T07:12:17.358Z,1000.90
2019-05-02T07:13:17.354Z,1000.93
2019-05-02T07:14:18.567Z,1000.93
2019-05-02T07:15:17.367Z,1000.95
2019-05-02T07:16:37.324Z,1000.92
2019-05-02T07:17:17.336Z,1000.95
2019-05-02T07:18:17.333Z,1001.00
2019-05-02T07:19:21.873Z,1000.98
2019-05-02T07:20:17.322Z,1001.01
2019-05-02T07:21:20.748Z,1000.97
2019-05-02T07:22:17.315Z,1000.97
2019-05-02T07:23:18.410Z,1001.01
2019-05-02T07:24:17.306Z,1000.99
2019-05-02T07:25:17.305Z,1001.05
2019-05-02T07:26:21.182Z,1001.04
2019-05-02T07:27:17.296Z,1001.04
2019-05-02T07:28:17.291Z,1000.98
2019-05-02T07:29:21.461Z,1001.03
2019-05-02T07:30:17.287Z,1001.03
2019-05-02T07:31:17.281Z,1001.03
2019-05-02T07:32:19.179Z,1001.00
2019-05-02T07:33:17.272Z,1001.03
2019-05-02T07:34:17.267Z,1001.08
2019-05-02T07:35:19.225Z,1001.08
2019-05-02T07:36:17.259Z,1001.04
2019-05-02T07:37:17.257Z,1001.07
2019-05-02T07:38:20.266Z,1001.18
2019-05-02T07:39:17.249Z,1001.11
2019-05-02T07:40:18.782Z,1001.06
2019-05-02T07:41:17.244Z,1001.07
2019-05-02T07:42:17.239Z,1001.09
2019-05-02T07:43:21.155Z,1001.05
2019-05-02T07:44:17.230Z,1001.10
2019-05-02T07:45:17.227Z,1001.09
2019-05-02T07:46:20.934Z,1001.15
2019-05-02T07:47:17.222Z,1001.14
2019-05-02T07:48:17.688Z,1001.08
2019-05-02T07:49:17.217Z,1001.14
2019-05-02T07:50:17.212Z,1001.13
2019-05-02T07:51:20.935Z,1001.11
2019-05-02T07:52:17.204Z,1001.15
2019-05-02T07:53:17.203Z,1001.13
2019-05-02T07:54:19.380Z,1001.16
2019-05-02T07:55:17.195Z,1001.17
2019-05-02T07:56:17.784Z,1001.13
2019-05-02T07:57:17.187Z,1001.15
2019-05-02T07:58:17.187Z,1001.16
2019-05-02T07:59:18.692Z,1001.11
2019-05-02T08:00:17.180Z,1001.15
2019-05-02T08:01:17.176Z,1001.19
2019-05-02T08:02:20.357Z,1001.15
2019-05-02T08:03:17.171Z,1001.20
2019-05-02T08:04:17.167Z,1001.13
2019-05-02T08:05:21.491Z,1001.06
2019-05-02T08:06:17.161Z,1001.09
2019-05-02T08:07:21.162Z,1001.11
2019-05-02T08:08:17.154Z,1001.15
2019-05-02T08:09:17.151Z,1001.12
2019-05-02T08:10:22.295Z,1001.09
2019-05-02T08:11:17.146Z,1001.13
2019-05-02T08:12:17.141Z,1001.08
2019-05-02T08:13:17.651Z,1001.12
2019-05-02T08:14:17.137Z,1001.19
2019-05-02T08:15:17.135Z,1001.21
2019-05-02T08:16:17.131Z,1001.17
2019-05-02T08:17:19.223Z,1001.13
2019-05-02T08:18:17.127Z,1001.24
2019-05-02T08:19:17.121Z,1001.21
2019-05-02T08:20:19.156Z,1001.23
2019-05-02T08:21:17.116Z,1001.23
2019-05-02T08:22:17.114Z,1001.22
2019-05-02T08:23:20.434Z,1001.34
2019-05-02T08:24:17.108Z,1001.35
2019-05-02T08:25:17.108Z,1001.34
2019-05-02T08:26:21.819Z,1001.33
2019-05-02T08:28:17.915Z,1001.19
2019-05-02T08:29:17.095Z,1001.26
2019-05-02T08:30:17.097Z,1001.29
2019-05-02T08:31:19.071Z,1001.29
2019-05-02T08:32:17.087Z,1001.33
2019-05-02T08:33:17.087Z,1001.39
2019-05-02T08:34:17.083Z,1001.33
2019-05-02T08:35:17.087Z,1001.25
2019-05-02T08:36:17.084Z,1001.23
2019-05-02T08:37:17.077Z,1001.20
2019-05-02T08:38:17.878Z,1001.56
2019-05-02T08:39:17.074Z,1001.42
2019-05-02T08:40:17.070Z,1001.39
2019-05-02T08:41:20.032Z,1001.35
2019-05-02T08:42:17.068Z,1001.31
2019-05-02T08:43:17.067Z,1001.35
2019-05-02T08:44:18.044Z,1001.30
2019-05-02T08:45:17.062Z,1001.60
2019-05-02T08:46:17.198Z,1001.43
2019-05-02T08:47:19.229Z,1001.36
2019-05-02T08:48:17.059Z,1001.52
2019-05-02T08:49:18.896Z,1001.40
2019-05-02T08:50:17.057Z,1001.35
2019-05-02T08:51:17.056Z,1001.24
2019-05-02T08:52:17.054Z,1001.28
2019-05-02T08:53:19.847Z,1001.32
2019-05-02T08:54:17.054Z,1001.28
2019-05-02T08:55:17.052Z,1001.23
2019-05-02T08:56:21.467Z,1001.29
2019-05-02T08:57:17.051Z,1001.65
2019-05-02T08:58:17.051Z,1001.53
2019-05-02T08:59:19.719Z,1001.56
2019-05-02T09:00:17.050Z,1001.61
2019-05-02T09:01:17.048Z,1001.58
2019-05-02T09:02:21.210Z,1001.57
2019-05-02T09:03:17.053Z,1001.59
2019-05-02T09:04:17.048Z,1001.75
2019-05-02T09:05:17.049Z,1001.54
2019-05-02T09:06:21.722Z,1001.67
2019-05-02T09:07:17.107Z,1001.45
2019-05-02T09:08:17.053Z,1001.60
2019-05-02T09:09:17.066Z,1001.70
2019-05-02T09:10:17.055Z,1001.61
2019-05-02T09:11:17.057Z,1001.41
2019-05-02T09:12:19.851Z,1001.57
2019-05-02T09:13:23.603Z,1001.70
2019-05-02T09:14:17.066Z,1001.78
2019-05-02T09:15:17.067Z,1001.69
2019-05-02T09:16:23.633Z,1001.41
2019-05-02T09:17:17.071Z,1001.31
2019-05-02T09:18:17.071Z,1001.38
2019-05-02T09:19:21.253Z,1001.29
2019-05-02T09:20:20.770Z,1001.29
2019-05-02T09:21:17.079Z,1001.25
2019-05-02T09:22:17.084Z,1001.16
2019-05-02T09:23:17.088Z,1001.12
2019-05-02T09:24:21.158Z,1001.35
2019-05-02T09:25:17.093Z,1001.17
2019-05-02T09:26:17.099Z,1001.46
2019-05-02T09:27:17.098Z,1001.49
2019-05-02T09:28:17.285Z,1001.53
2019-05-02T09:29:17.104Z,1001.58
2019-05-02T09:30:21.434Z,1001.41
2019-05-02T09:31:17.115Z,1001.53
2019-05-02T09:32:21.645Z,1001.57
2019-05-02T09:33:17.117Z,1001.57
2019-05-02T09:34:21.583Z,1001.68
2019-05-02T09:35:17.126Z,1001.61
2019-05-02T09:36:17.128Z,1001.56
2019-05-02T09:37:17.133Z,1001.52
2019-05-02T09:38:17.138Z,1001.51
2019-05-02T09:39:17.143Z,1001.47
2019-05-02T09:40:17.147Z,1001.48
2019-05-02T09:41:19.396Z,1001.52
2019-05-02T09:42:19.068Z,1001.23
2019-05-02T09:43:17.163Z,1001.08
2019-05-02T09:44:18.747Z,1001.44
2019-05-02T09:45:17.176Z,1000.95
2019-05-02T09:46:17.184Z,1001.29
2019-05-02T09:47:17.184Z,1001.38
2019-05-02T09:48:21.624Z,1001.37
2019-05-02T09:49:17.198Z,1001.35
2019-05-02T09:50:20.504Z,1001.33
2019-05-02T09:51:17.646Z,1001.29
2019-05-02T09:52:17.212Z,1001.22
2019-05-02T09:53:20.521Z,1001.27
2019-05-02T09:54:17.226Z,1001.28
2019-05-02T09:55:17.245Z,1001.18
2019-05-02T09:56:17.238Z,1000.87
2019-05-02T09:57:17.244Z,1001.24
2019-05-02T09:58:21.279Z,1001.25
2019-05-02T09:59:27.788Z,1001.08
2019-05-02T10:00:17.269Z,1001.18
2019-05-02T10:01:17.272Z,1001.18
2019-05-02T10:02:17.280Z,1001.20
2019-05-02T10:03:17.287Z,1001.18
2019-05-02T10:04:17.302Z,1001.19
2019-05-02T10:05:17.299Z,1001.13
2019-05-02T10:06:18.294Z,1001.08
2019-05-02T10:07:17.322Z,1000.77
2019-05-02T10:08:17.322Z,1001.00
2019-05-02T10:09:18.774Z,1001.07
2019-05-02T10:10:17.336Z,1000.63
2019-05-02T10:11:21.727Z,1001.07
2019-05-02T10:12:17.349Z,1001.02
2019-05-02T10:13:17.361Z,1001.05
2019-05-02T10:14:17.369Z,1000.81
2019-05-02T10:15:17.409Z,1000.61
2019-05-02T10:16:17.902Z,1000.94
2019-05-02T10:17:18.450Z,1000.58
2019-05-02T10:18:19.639Z,1000.62
2019-05-02T10:19:17.407Z,1000.52
2019-05-02T10:20:17.409Z,1000.89
2019-05-02T10:21:17.448Z,1000.47
2019-05-02T10:22:17.421Z,1000.46
2019-05-02T10:23:19.395Z,1000.43
2019-05-02T10:24:17.433Z,1000.63
2019-05-02T10:25:17.438Z,1000.86
2019-05-02T10:26:20.175Z,1000.63
2019-05-02T10:27:17.451Z,1000.56
2019-05-02T10:28:17.456Z,1000.52
2019-05-02T10:29:22.001Z,1000.78
2019-05-02T10:30:17.474Z,1000.65
2019-05-02T10:31:17.471Z,1000.66
2019-05-02T10:32:17.477Z,1000.64
2019-05-02T10:33:17.483Z,1000.68
2019-05-02T10:34:17.826Z,1000.70
2019-05-02T10:35:17.494Z,1000.67
2019-05-02T10:36:19.609Z,1000.57
2019-05-02T10:37:17.503Z,1000.59
2019-05-02T10:38:19.455Z,1000.61
2019-05-02T10:39:17.514Z,1000.68
2019-05-02T10:40:17.576Z,1000.62
2019-05-02T10:41:17.524Z,1000.68
2019-05-02T10:42:17.531Z,1000.62
2019-05-02T10:43:17.536Z,1000.65
2019-05-02T10:44:17.539Z,1000.56
2019-05-02T10:45:17.548Z,1000.23
2019-05-02T10:46:17.553Z,1000.50
2019-05-02T10:47:17.558Z,1000.55
2019-05-02T10:48:25.754Z,1000.44
2019-05-02T10:49:17.570Z,1000.32
2019-05-02T10:50:17.575Z,1000.33
2019-05-02T10:51:17.582Z,1000.32
2019-05-02T10:52:21.626Z,1000.07
2019-05-02T10:53:17.595Z,1000.48
2019-05-02T10:54:20.373Z,1000.47
2019-05-02T10:55:17.608Z,1000.43
2019-05-02T10:56:17.608Z,1000.37
2019-05-02T10:57:17.615Z,1000.30
2019-05-02T10:58:17.620Z,1000.35
2019-05-02T10:59:17.626Z,1000.33
2019-05-02T11:00:17.662Z,1000.21
2019-05-02T11:01:17.637Z,1000.12
2019-05-02T11:02:17.644Z,1000.05
2019-05-02T11:03:17.649Z,1000.00
2019-05-02T11:04:17.654Z,999.88
2019-05-02T11:05:22.554Z,999.93
2019-05-02T11:06:17.666Z,999.97
2019-05-02T11:07:22.612Z,999.92
2019-05-02T11:08:17.674Z,1000.01
2019-05-02T11:09:22.573Z,999.99
2019-05-02T11:10:17.686Z,999.95
2019-05-02T11:11:17.693Z,999.97
2019-05-02T11:12:23.960Z,999.94
2019-05-02T11:13:17.703Z,999.86
2019-05-02T11:14:17.705Z,999.88
2019-05-02T11:15:17.710Z,999.77
2019-05-02T11:16:17.713Z,999.78
2019-05-02T11:17:18.136Z,999.76
2019-05-02T11:18:17.723Z,999.85
2019-05-02T11:19:17.743Z,999.85
2019-05-02T11:20:17.731Z,999.77
2019-05-02T11:21:18.874Z,999.75
2019-05-02T11:22:17.741Z,999.74
2019-05-02T11:23:17.742Z,999.73
2019-05-02T11:24:17.747Z,999.73
2019-05-02T11:25:17.751Z,999.77
2019-05-02T11:26:21.522Z,999.70
2019-05-02T11:27:17.765Z,999.77
2019-05-02T11:28:17.761Z,999.76
2019-05-02T11:29:17.764Z,999.65
2019-05-02T11:30:22.424Z,999.76
2019-05-02T11:31:17.774Z,999.61
2019-05-02T11:32:17.777Z,999.56
2019-05-02T11:33:17.779Z,999.53
2019-05-02T11:34:17.784Z,999.55
2019-05-02T11:35:17.786Z,999.47
2019-05-02T11:36:17.789Z,999.57
2019-05-02T11:37:17.793Z,999.57
2019-05-02T11:38:36.357Z,999.50
2019-05-02T11:39:25.927Z,999.55
2019-05-02T11:40:17.801Z,999.50
2019-05-02T11:41:17.805Z,999.50
2019-05-02T11:42:22.144Z,999.51
2019-05-02T11:43:17.811Z,999.57
2019-05-02T11:44:17.833Z,999.48
2019-05-02T11:45:17.823Z,999.53
2019-05-02T11:46:17.821Z,999.51
2019-05-02T11:47:24.844Z,999.54
2019-05-02T11:48:19.810Z,999.47
2019-05-02T11:49:17.827Z,999.51
2019-05-02T11:50:17.830Z,999.53
2019-05-02T11:51:17.835Z,999.44
2019-05-02T11:52:17.842Z,999.39
2019-05-02T11:53:28.898Z,999.38
2019-05-02T11:54:17.841Z,999.43
2019-05-02T11:55:18.966Z,999.42
2019-05-02T11:56:17.844Z,999.50
2019-05-02T11:57:22.723Z,999.42
2019-05-02T11:58:17.850Z,999.45
2019-05-02T11:59:22.612Z,999.36
2019-05-02T12:00:17.854Z,999.37
2019-05-02T12:01:19.741Z,999.31
2019-05-02T12:02:18.983Z,999.35
2019-05-02T12:03:17.865Z,999.32
2019-05-02T12:04:17.865Z,999.32
2019-05-02T12:05:17.868Z,999.33
2019-05-02T12:06:19.739Z,999.26
2019-05-02T12:07:17.871Z,999.22
2019-05-02T12:08:17.873Z,999.27